sensor_id;sensor_type;location;lat;lon;timestamp;P1;durP1;ratioP1;P2;durP2;ratioP2
74855;SDS011;63407;53.018;8.690;2022-10-17T04:01:26;0.55;;;0.52;;
74855;SDS011;63407;53.018;8.690;2022-10-17T04:03:53;0.90;;;0.60;;
74855;SDS011;63407;53.018;8.690;2022-10-17T04:06:20;0.60;;;0.50;;
74855;SDS011;63407;53.018;8.690;2022-10-17T04:08:47;0.50;;;0.50;;
74855;SDS011;63407;53.018;8.690;2022-10-17T04:11:22;0.63;;;0.52;;
74855;SDS011;63407;53.018;8.690;2022-10-17T04:13:52;0.50;;;0.50;;
74855;SDS011;63407;53.018;8.690;2022-10-17T04:16:19;0.65;;;0.40;;
74855;SDS011;63407;53.018;8.690;2022-10-17T04:19:09;0.63;;;0.47;;
74855;SDS011;63407;53.018;8.690;2022-10-17T04:21:39;0.75;;;0.50;;
74855;SDS011;63407;53.018;8.690;2022-10-17T04:24:07;0.60;;;0.60;;
74855;SDS011;63407;53.018;8.690;2022-10-17T04:26:44;1.20;;;0.60;;
74855;SDS011;63407;53.018;8.690;2022-10-17T04:29:14;0.57;;;0.55;;
74855;SDS011;63407;53.018;8.690;2022-10-17T04:31:41;0.95;;;0.50;;
74855;SDS011;63407;53.018;8.690;2022-10-17T04:34:33;0.60;;;0.60;;
74855;SDS011;63407;53.018;8.690;2022-10-17T04:36:58;0.75;;;0.63;;
74855;SDS011;63407;53.018;8.690;2022-10-17T04:39:24;0.70;;;0.60;;
74855;SDS011;63407;53.018;8.690;2022-10-17T04:41:50;0.60;;;0.47;;
74855;SDS011;63407;53.018;8.690;2022-10-17T04:44:15;0.80;;;0.60;;
74855;SDS011;63407;53.018;8.690;2022-10-17T04:46:47;0.68;;;0.60;;
74855;SDS011;63407;53.018;8.690;2022-10-17T04:49:13;0.40;;;0.40;;
74855;SDS011;63407;53.018;8.690;2022-10-17T04:51:41;0.98;;;0.63;;
74855;SDS011;63407;53.018;8.690;2022-10-17T04:54:30;0.57;;;0.47;;
74855;SDS011;63407;53.018;8.690;2022-10-17T04:57:05;0.98;;;0.60;;
74855;SDS011;63407;53.018;8.690;2022-10-17T04:59:31;0.60;;;0.57;;
74855;SDS011;63407;53.018;8.690;2022-10-17T05:02:13;1.33;;;0.45;;
74855;SDS011;63407;53.018;8.690;2022-10-17T05:04:39;0.40;;;0.40;;
74855;SDS011;63407;53.018;8.690;2022-10-17T05:07:05;0.52;;;0.40;;
74855;SDS011;63407;53.018;8.690;2022-10-17T05:09:36;0.70;;;0.50;;
74855;SDS011;63407;53.018;8.690;2022-10-17T05:12:02;0.63;;;0.50;;
74855;SDS011;63407;53.018;8.690;2022-10-17T05:14:29;0.55;;;0.55;;
74855;SDS011;63407;53.018;8.690;2022-10-17T05:16:55;0.73;;;0.55;;
74855;SDS011;63407;53.018;8.690;2022-10-17T05:19:22;0.57;;;0.50;;
74855;SDS011;63407;53.018;8.690;2022-10-17T05:21:49;0.57;;;0.47;;
74855;SDS011;63407;53.018;8.690;2022-10-17T05:24:15;0.57;;;0.57;;
74855;SDS011;63407;53.018;8.690;2022-10-17T05:26:40;0.63;;;0.50;;
74855;SDS011;63407;53.018;8.690;2022-10-17T05:29:07;1.30;;;0.50;;
74855;SDS011;63407;53.018;8.690;2022-10-17T05:31:36;0.70;;;0.60;;
74855;SDS011;63407;53.018;8.690;2022-10-17T05:34:03;0.75;;;0.52;;
74855;SDS011;63407;53.018;8.690;2022-10-17T05:36:31;0.55;;;0.50;;
74855;SDS011;63407;53.018;8.690;2022-10-17T05:38:58;0.50;;;0.50;;
74855;SDS011;63407;53.018;8.690;2022-10-17T05:41:25;0.80;;;0.70;;
74855;SDS011;63407;53.018;8.690;2022-10-17T05:43:51;0.90;;;0.60;;
74855;SDS011;63407;53.018;8.690;2022-10-17T05:46:20;0.40;;;0.40;;
74855;SDS011;63407;53.018;8.690;2022-10-17T05:48:46;1.02;;;0.63;;
74855;SDS011;63407;53.018;8.690;2022-10-17T05:51:12;0.50;;;0.50;;
74855;SDS011;63407;53.018;8.690;2022-10-17T05:53:39;0.50;;;0.50;;
74855;SDS011;63407;53.018;8.690;2022-10-17T05:56:10;0.90;;;0.50;;
74855;SDS011;63407;53.018;8.690;2022-10-17T05:58:40;0.50;;;0.50;;
74855;SDS011;63407;53.018;8.690;2022-10-17T06:01:12;0.85;;;0.80;;
74855;SDS011;63407;53.018;8.690;2022-10-17T06:03:38;0.60;;;0.60;;
74855;SDS011;63407;53.018;8.690;2022-10-17T06:06:05;0.40;;;0.40;;
74855;SDS011;63407;53.018;8.690;2022-10-17T06:08:34;0.63;;;0.60;;
74855;SDS011;63407;53.018;8.690;2022-10-17T06:11:00;0.40;;;0.30;;
74855;SDS011;63407;53.018;8.690;2022-10-17T06:13:25;0.77;;;0.57;;
74855;SDS011;63407;53.018;8.690;2022-10-17T06:15:52;0.65;;;0.50;;
74855;SDS011;63407;53.018;8.690;2022-10-17T06:18:18;1.30;;;0.63;;
74855;SDS011;63407;53.018;8.690;2022-10-17T06:20:43;1.13;;;0.50;;
74855;SDS011;63407;53.018;8.690;2022-10-17T06:23:09;0.60;;;0.60;;
74855;SDS011;63407;53.018;8.690;2022-10-17T06:26:06;0.50;;;0.50;;
74855;SDS011;63407;53.018;8.690;2022-10-17T06:28:32;0.60;;;0.50;;
74855;SDS011;63407;53.018;8.690;2022-10-17T06:30:59;0.40;;;0.40;;
74855;SDS011;63407;53.018;8.690;2022-10-17T06:33:28;0.40;;;0.40;;
74855;SDS011;63407;53.018;8.690;2022-10-17T06:35:54;0.50;;;0.47;;
74855;SDS011;63407;53.018;8.690;2022-10-17T06:38:22;0.50;;;0.50;;
74855;SDS011;63407;53.018;8.690;2022-10-17T06:40:50;0.93;;;0.70;;
74855;SDS011;63407;53.018;8.690;2022-10-17T06:43:18;0.40;;;0.40;;
74855;SDS011;63407;53.018;8.690;2022-10-17T06:46:07;0.45;;;0.40;;
74855;SDS011;63407;53.018;8.690;2022-10-17T06:48:40;0.93;;;0.52;;
74855;SDS011;63407;53.018;8.690;2022-10-17T06:51:26;0.63;;;0.60;;
74855;SDS011;63407;53.018;8.690;2022-10-17T06:53:54;0.75;;;0.57;;
74855;SDS011;63407;53.018;8.690;2022-10-17T06:56:44;0.52;;;0.50;;
74855;SDS011;63407;53.018;8.690;2022-10-17T06:59:28;0.52;;;0.50;;
74855;SDS011;63407;53.018;8.690;2022-10-17T07:02:08;0.50;;;0.50;;
74855;SDS011;63407;53.018;8.690;2022-10-17T07:04:35;0.60;;;0.60;;
74855;SDS011;63407;53.018;8.690;2022-10-17T07:07:01;0.93;;;0.50;;
74855;SDS011;63407;53.018;8.690;2022-10-17T07:09:30;0.52;;;0.40;;
74855;SDS011;63407;53.018;8.690;2022-10-17T07:11:57;0.60;;;0.50;;
74855;SDS011;63407;53.018;8.690;2022-10-17T07:14:24;0.47;;;0.47;;
74855;SDS011;63407;53.018;8.690;2022-10-17T07:16:56;0.70;;;0.65;;
74855;SDS011;63407;53.018;8.690;2022-10-17T07:19:23;0.60;;;0.60;;
74855;SDS011;63407;53.018;8.690;2022-10-17T07:21:49;0.70;;;0.47;;
74855;SDS011;63407;53.018;8.690;2022-10-17T07:24:15;0.70;;;0.70;;
74855;SDS011;63407;53.018;8.690;2022-10-17T07:26:45;0.55;;;0.40;;
74855;SDS011;63407;53.018;8.690;2022-10-17T07:29:11;0.40;;;0.40;;
74855;SDS011;63407;53.018;8.690;2022-10-17T07:32:15;0.82;;;0.60;;
74855;SDS011;63407;53.018;8.690;2022-10-17T07:34:40;1.45;;;0.80;;
74855;SDS011;63407;53.018;8.690;2022-10-17T07:37:08;0.50;;;0.45;;
74855;SDS011;63407;53.018;8.690;2022-10-17T07:39:34;0.80;;;0.63;;
74855;SDS011;63407;53.018;8.690;2022-10-17T07:42:00;0.70;;;0.70;;
74855;SDS011;63407;53.018;8.690;2022-10-17T07:44:26;0.52;;;0.52;;
74855;SDS011;63407;53.018;8.690;2022-10-17T07:46:52;1.23;;;0.52;;
74855;SDS011;63407;53.018;8.690;2022-10-17T07:49:18;0.98;;;0.70;;
74855;SDS011;63407;53.018;8.690;2022-10-17T07:51:43;0.68;;;0.68;;
74855;SDS011;63407;53.018;8.690;2022-10-17T07:54:09;0.50;;;0.50;;
74855;SDS011;63407;53.018;8.690;2022-10-17T07:56:34;0.50;;;0.50;;
74855;SDS011;63407;53.018;8.690;2022-10-17T07:59:00;0.80;;;0.80;;
74855;SDS011;63407;53.018;8.690;2022-10-17T08:01:25;1.52;;;0.80;;
74855;SDS011;63407;53.018;8.690;2022-10-17T08:03:52;0.77;;;0.70;;
74855;SDS011;63407;53.018;8.690;2022-10-17T08:06:17;0.73;;;0.52;;
74855;SDS011;63407;53.018;8.690;2022-10-17T08:08:43;1.13;;;0.70;;
74855;SDS011;63407;53.018;8.690;2022-10-17T08:11:09;2.13;;;0.63;;
74855;SDS011;63407;53.018;8.690;2022-10-17T08:13:36;2.55;;;1.00;;
74855;SDS011;63407;53.018;8.690;2022-10-17T08:16:04;0.93;;;0.70;;
74855;SDS011;63407;53.018;8.690;2022-10-17T08:18:31;0.60;;;0.60;;
74855;SDS011;63407;53.018;8.690;2022-10-17T08:21:04;1.58;;;0.70;;
74855;SDS011;63407;53.018;8.690;2022-10-17T08:23:32;1.15;;;0.70;;
74855;SDS011;63407;53.018;8.690;2022-10-17T08:25:58;0.70;;;0.70;;
74855;SDS011;63407;53.018;8.690;2022-10-17T08:28:25;1.83;;;0.90;;
74855;SDS011;63407;53.018;8.690;2022-10-17T08:30:50;1.45;;;0.73;;
74855;SDS011;63407;53.018;8.690;2022-10-17T08:33:16;1.10;;;0.65;;
74855;SDS011;63407;53.018;8.690;2022-10-17T08:35:41;0.73;;;0.68;;
74855;SDS011;63407;53.018;8.690;2022-10-17T08:38:07;0.73;;;0.63;;
74855;SDS011;63407;53.018;8.690;2022-10-17T08:40:32;0.73;;;0.73;;
74855;SDS011;63407;53.018;8.690;2022-10-17T08:45:53;1.00;;;0.70;;
74855;SDS011;63407;53.018;8.690;2022-10-17T08:48:24;0.85;;;0.75;;
74855;SDS011;63407;53.018;8.690;2022-10-17T08:50:55;0.75;;;0.73;;
74855;SDS011;63407;53.018;8.690;2022-10-17T08:53:23;1.00;;;0.90;;
74855;SDS011;63407;53.018;8.690;2022-10-17T08:55:50;2.47;;;1.70;;
74855;SDS011;63407;53.018;8.690;2022-10-17T08:58:24;2.17;;;1.98;;
74855;SDS011;63407;53.018;8.690;2022-10-17T09:03:36;3.63;;;2.72;;
74855;SDS011;63407;53.018;8.690;2022-10-17T09:06:26;4.10;;;2.90;;
74855;SDS011;63407;53.018;8.690;2022-10-17T09:20:21;3.92;;;2.60;;
74855;SDS011;63407;53.018;8.690;2022-10-17T09:22:55;4.70;;;2.75;;
74855;SDS011;63407;53.018;8.690;2022-10-17T09:25:24;2.35;;;2.15;;
74855;SDS011;63407;53.018;8.690;2022-10-17T09:27:53;3.35;;;2.38;;
74855;SDS011;63407;53.018;8.690;2022-10-17T09:32:55;5.22;;;3.17;;
74855;SDS011;63407;53.018;8.690;2022-10-17T09:35:21;3.17;;;2.60;;
74855;SDS011;63407;53.018;8.690;2022-10-17T09:37:48;2.60;;;2.40;;
74855;SDS011;63407;53.018;8.690;2022-10-17T09:40:17;4.43;;;2.80;;
74855;SDS011;63407;53.018;8.690;2022-10-17T09:42:49;3.30;;;2.10;;
74855;SDS011;63407;53.018;8.690;2022-10-17T09:45:16;3.60;;;2.17;;
74855;SDS011;63407;53.018;8.690;2022-10-17T09:50:16;2.70;;;1.85;;
74855;SDS011;63407;53.018;8.690;2022-10-17T09:52:47;2.33;;;1.80;;
74855;SDS011;63407;53.018;8.690;2022-10-17T09:55:19;2.08;;;1.98;;
74855;SDS011;63407;53.018;8.690;2022-10-17T09:57:52;2.85;;;1.63;;
74855;SDS011;63407;53.018;8.690;2022-10-17T10:00:29;1.92;;;1.60;;
74855;SDS011;63407;53.018;8.690;2022-10-17T10:05:37;4.50;;;1.70;;
74855;SDS011;63407;53.018;8.690;2022-10-17T10:08:04;2.85;;;1.90;;
74855;SDS011;63407;53.018;8.690;2022-10-17T10:10:36;1.65;;;1.55;;
74855;SDS011;63407;53.018;8.690;2022-10-17T10:15:42;2.75;;;1.85;;
74855;SDS011;63407;53.018;8.690;2022-10-17T10:18:29;6.10;;;2.00;;
74855;SDS011;63407;53.018;8.690;2022-10-17T10:23:31;2.05;;;1.80;;
74855;SDS011;63407;53.018;8.690;2022-10-17T10:25:59;1.90;;;1.50;;
74855;SDS011;63407;53.018;8.690;2022-10-17T10:28:32;1.65;;;1.55;;
74855;SDS011;63407;53.018;8.690;2022-10-17T10:31:01;1.85;;;1.50;;
74855;SDS011;63407;53.018;8.690;2022-10-17T10:33:31;1.92;;;1.73;;
74855;SDS011;63407;53.018;8.690;2022-10-17T10:36:00;2.33;;;1.60;;
74855;SDS011;63407;53.018;8.690;2022-10-17T10:38:28;2.42;;;1.55;;
74855;SDS011;63407;53.018;8.690;2022-10-17T10:41:06;2.05;;;1.80;;
74855;SDS011;63407;53.018;8.690;2022-10-17T10:43:44;2.47;;;1.67;;
74855;SDS011;63407;53.018;8.690;2022-10-17T10:46:29;1.77;;;1.60;;
74855;SDS011;63407;53.018;8.690;2022-10-17T10:49:00;1.48;;;1.38;;
74855;SDS011;63407;53.018;8.690;2022-10-17T10:51:43;1.77;;;1.60;;
74855;SDS011;63407;53.018;8.690;2022-10-17T10:54:15;1.85;;;1.75;;
74855;SDS011;63407;53.018;8.690;2022-10-17T10:56:48;2.30;;;1.38;;
74855;SDS011;63407;53.018;8.690;2022-10-17T10:59:19;2.17;;;1.55;;
74855;SDS011;63407;53.018;8.690;2022-10-17T11:01:57;1.67;;;1.40;;
74855;SDS011;63407;53.018;8.690;2022-10-17T11:18:07;1.52;;;1.35;;
74855;SDS011;63407;53.018;8.690;2022-10-17T11:23:50;1.48;;;1.38;;
74855;SDS011;63407;53.018;8.690;2022-10-17T11:26:28;1.50;;;1.40;;
74855;SDS011;63407;53.018;8.690;2022-10-17T11:28:58;1.52;;;1.42;;
74855;SDS011;63407;53.018;8.690;2022-10-17T11:31:31;2.17;;;1.70;;
74855;SDS011;63407;53.018;8.690;2022-10-17T11:36:35;1.50;;;1.40;;
74855;SDS011;63407;53.018;8.690;2022-10-17T11:41:48;1.50;;;1.40;;
74855;SDS011;63407;53.018;8.690;2022-10-17T11:44:20;2.03;;;1.33;;
74855;SDS011;63407;53.018;8.690;2022-10-17T11:46:53;2.08;;;1.50;;
74855;SDS011;63407;53.018;8.690;2022-10-17T11:49:24;3.33;;;1.30;;
74855;SDS011;63407;53.018;8.690;2022-10-17T11:51:59;1.67;;;1.30;;
74855;SDS011;63407;53.018;8.690;2022-10-17T11:54:30;1.88;;;1.27;;
74855;SDS011;63407;53.018;8.690;2022-10-17T12:03:18;1.17;;;1.08;;
74855;SDS011;63407;53.018;8.690;2022-10-17T12:05:49;1.45;;;1.10;;
74855;SDS011;63407;53.018;8.690;2022-10-17T12:13:46;2.95;;;1.27;;
74855;SDS011;63407;53.018;8.690;2022-10-17T12:18:45;2.08;;;1.35;;
74855;SDS011;63407;53.018;8.690;2022-10-17T12:21:12;1.23;;;1.13;;
74855;SDS011;63407;53.018;8.690;2022-10-17T12:23:38;2.42;;;1.48;;
74855;SDS011;63407;53.018;8.690;2022-10-17T12:26:08;2.65;;;1.55;;
74855;SDS011;63407;53.018;8.690;2022-10-17T12:31:13;3.40;;;1.35;;
74855;SDS011;63407;53.018;8.690;2022-10-17T12:46:41;1.95;;;1.25;;
74855;SDS011;63407;53.018;8.690;2022-10-17T12:49:21;2.13;;;1.30;;
74855;SDS011;63407;53.018;8.690;2022-10-17T12:52:26;2.75;;;1.50;;
74855;SDS011;63407;53.018;8.690;2022-10-17T12:59:57;2.40;;;1.30;;
74855;SDS011;63407;53.018;8.690;2022-10-17T13:02:26;2.63;;;1.60;;
74855;SDS011;63407;53.018;8.690;2022-10-17T13:04:56;1.70;;;1.40;;
74855;SDS011;63407;53.018;8.690;2022-10-17T13:07:29;3.25;;;1.70;;
74855;SDS011;63407;53.018;8.690;2022-10-17T13:09:54;1.92;;;1.20;;
74855;SDS011;63407;53.018;8.690;2022-10-17T13:12:22;1.52;;;1.10;;
74855;SDS011;63407;53.018;8.690;2022-10-17T13:14:51;2.20;;;1.10;;
74855;SDS011;63407;53.018;8.690;2022-10-17T13:19:52;2.22;;;1.40;;
74855;SDS011;63407;53.018;8.690;2022-10-17T13:22:20;2.45;;;1.40;;
74855;SDS011;63407;53.018;8.690;2022-10-17T13:24:51;1.40;;;1.30;;
74855;SDS011;63407;53.018;8.690;2022-10-17T13:27:28;1.30;;;1.20;;
74855;SDS011;63407;53.018;8.690;2022-10-17T13:29:56;1.30;;;1.20;;
74855;SDS011;63407;53.018;8.690;2022-10-17T13:32:24;1.83;;;1.20;;
74855;SDS011;63407;53.018;8.690;2022-10-17T13:35:07;1.52;;;1.25;;
74855;SDS011;63407;53.018;8.690;2022-10-17T13:37:36;1.35;;;1.25;;
74855;SDS011;63407;53.018;8.690;2022-10-17T13:40:04;1.63;;;1.17;;
74855;SDS011;63407;53.018;8.690;2022-10-17T13:42:35;1.48;;;1.35;;
74855;SDS011;63407;53.018;8.690;2022-10-17T13:45:03;2.15;;;1.20;;
74855;SDS011;63407;53.018;8.690;2022-10-17T13:47:41;1.23;;;1.10;;
74855;SDS011;63407;53.018;8.690;2022-10-17T13:50:07;2.22;;;1.20;;
74855;SDS011;63407;53.018;8.690;2022-10-17T13:53:06;3.05;;;1.10;;
74855;SDS011;63407;53.018;8.690;2022-10-17T13:55:52;1.42;;;1.33;;
74855;SDS011;63407;53.018;8.690;2022-10-17T13:58:20;1.20;;;1.10;;
74855;SDS011;63407;53.018;8.690;2022-10-17T14:00:45;1.25;;;1.15;;
74855;SDS011;63407;53.018;8.690;2022-10-17T14:03:15;3.05;;;1.40;;
74855;SDS011;63407;53.018;8.690;2022-10-17T14:06:04;1.35;;;1.25;;
74855;SDS011;63407;53.018;8.690;2022-10-17T14:08:37;4.20;;;1.52;;
74855;SDS011;63407;53.018;8.690;2022-10-17T14:11:12;1.67;;;1.20;;
74855;SDS011;63407;53.018;8.690;2022-10-17T14:13:40;1.42;;;1.33;;
74855;SDS011;63407;53.018;8.690;2022-10-17T14:16:06;1.35;;;1.25;;
74855;SDS011;63407;53.018;8.690;2022-10-17T14:18:34;1.20;;;1.10;;
74855;SDS011;63407;53.018;8.690;2022-10-17T14:21:01;1.45;;;1.10;;
74855;SDS011;63407;53.018;8.690;2022-10-17T14:26:13;3.20;;;1.08;;
74855;SDS011;63407;53.018;8.690;2022-10-17T14:28:43;1.70;;;1.30;;
74855;SDS011;63407;53.018;8.690;2022-10-17T14:31:20;1.50;;;1.30;;
74855;SDS011;63407;53.018;8.690;2022-10-17T14:33:53;2.08;;;1.70;;
74855;SDS011;63407;53.018;8.690;2022-10-17T14:36:19;3.15;;;2.85;;
74855;SDS011;63407;53.018;8.690;2022-10-17T14:38:53;4.82;;;4.22;;
74855;SDS011;63407;53.018;8.690;2022-10-17T14:41:29;4.88;;;4.30;;
74855;SDS011;63407;53.018;8.690;2022-10-17T14:44:03;3.33;;;2.70;;
